Time;durP1;ratioP1;P1;durP2;ratioP2;P2;SDS_P1;SDS_P2;PMS_P1;PMS_P2;Temp;Humidity;BMP_temperature;BMP_pressure;BME280_temperature;BME280_humidity;BME280_pressure;Samples;Min_cycle;Max_cycle;Signal;HPM_P1;HPM_P2
2023/07/17 00:00:17;;;;;;;5.32;2.47;;;;;;;18.10;69.38;101456.34;5021880;28;20157;-80
2023/07/17 00:02:43;;;;;;;7.63;2.95;;;;;;;18.09;69.16;101454.63;5025328;28;20032;-80
2023/07/17 00:05:10;;;;;;;5.22;2.58;;;;;;;18.10;68.81;101459.03;5017370;28;20026;-80
2023/07/17 00:07:35;;;;;;;5.38;3.10;;;;;;;18.19;68.66;101451.38;5024023;28;20040;-80
2023/07/17 00:10:03;;;;;;;7.88;2.78;;;;;;;18.20;68.74;101463.81;5026324;28;20024;-80
2023/07/17 00:12:29;;;;;;;5.53;2.97;;;;;;;18.20;68.79;101453.09;5032771;28;20036;-80
2023/07/17 00:14:54;;;;;;;5.32;2.90;;;;;;;18.18;68.80;101457.66;5025859;28;20026;-80
2023/07/17 00:17:20;;;;;;;5.82;2.92;;;;;;;18.17;69.35;101447.94;5030531;28;20022;-80
2023/07/17 00:19:53;;;;;;;6.55;3.25;;;;;;;18.06;69.43;101452.13;5025334;28;20485;-80
2023/07/17 00:22:19;;;;;;;7.30;3.10;;;;;;;18.06;69.74;101459.31;5028493;28;20086;-80
2023/07/17 00:24:44;;;;;;;8.32;3.25;;;;;;;18.06;69.39;101453.94;5032530;28;20029;-80
2023/07/17 00:27:09;;;;;;;5.85;3.25;;;;;;;18.03;69.64;101451.47;5034273;28;20497;-80
2023/07/17 00:29:34;;;;;;;6.68;3.22;;;;;;;17.93;69.93;101450.31;5030917;28;20060;-80
2023/07/17 00:32:00;;;;;;;6.35;3.00;;;;;;;17.92;70.06;101457.47;5027067;28;20439;-80
2023/07/17 00:34:25;;;;;;;5.03;3.30;;;;;;;17.91;70.43;101460.25;5024058;28;20029;-80
2023/07/17 00:36:51;;;;;;;6.68;3.30;;;;;;;17.94;69.92;101460.03;5021704;28;20034;-80
2023/07/17 00:39:18;;;;;;;7.13;3.63;;;;;;;17.92;70.15;101456.63;5021025;28;20436;-80
2023/07/17 00:41:44;;;;;;;5.47;3.55;;;;;;;17.92;70.32;101464.66;5049320;28;20176;-80
2023/07/17 00:44:09;;;;;;;7.43;3.50;;;;;;;17.82;70.54;101465.19;5027752;28;20524;-80
2023/07/17 00:46:35;;;;;;;5.97;3.33;;;;;;;17.77;70.76;101472.66;5027895;28;20052;-80
2023/07/17 00:49:01;;;;;;;7.28;3.53;;;;;;;17.66;71.23;101468.84;5034565;28;20033;-80
2023/07/17 00:51:27;;;;;;;6.90;3.10;;;;;;;17.58;71.28;101470.19;5023531;28;20116;-80
2023/07/17 00:53:53;;;;;;;4.03;2.97;;;;;;;17.56;71.49;101472.06;5024881;28;20026;-80
2023/07/17 00:56:18;;;;;;;5.30;3.40;;;;;;;17.56;71.27;101480.09;5031233;28;20037;-80
2023/07/17 00:58:44;;;;;;;6.57;3.55;;;;;;;17.55;71.64;101488.22;5025262;28;20026;-80
2023/07/17 01:01:10;;;;;;;5.35;3.40;;;;;;;17.45;72.04;101482.53;5018402;28;20462;-80
2023/07/17 01:03:35;;;;;;;5.78;3.30;;;;;;;17.44;71.45;101488.84;5031247;28;20026;-80
2023/07/17 01:06:01;;;;;;;5.97;3.33;;;;;;;17.44;71.97;101485.28;5027034;28;20078;-80
2023/07/17 01:08:26;;;;;;;6.88;3.10;;;;;;;17.38;72.13;101474.97;5024321;28;20025;-80
2023/07/17 01:10:51;;;;;;;7.35;2.92;;;;;;;17.31;71.92;101472.66;5035387;28;20539;-80
2023/07/17 01:13:17;;;;;;;7.68;3.28;;;;;;;17.19;72.88;101476.03;5026841;28;20026;-80
2023/07/17 01:15:42;;;;;;;6.03;2.97;;;;;;;17.19;72.86;101481.38;5029055;28;20052;-80
2023/07/17 01:18:07;;;;;;;5.95;3.30;;;;;;;17.23;72.81;101482.94;5024716;28;20480;-80
2023/07/17 01:20:33;;;;;;;7.60;3.75;;;;;;;17.24;72.58;101481.09;5025529;28;20079;-80
2023/07/17 01:23:02;;;;;;;9.95;3.60;;;;;;;17.16;73.23;101483.34;5025205;28;20060;-80
2023/07/17 01:25:28;;;;;;;8.02;3.90;;;;;;;17.14;73.44;101493.28;5023433;28;20056;-80
2023/07/17 01:27:53;;;;;;;9.05;3.53;;;;;;;17.07;73.32;101493.66;5012179;28;20060;-80
2023/07/17 01:30:19;;;;;;;9.45;3.53;;;;;;;17.08;73.30;101494.50;5019982;28;20017;-80
2023/07/17 01:32:44;;;;;;;8.07;3.42;;;;;;;17.02;73.07;101502.84;5023506;28;20025;-80
2023/07/17 01:35:09;;;;;;;7.00;3.35;;;;;;;16.98;73.41;101507.53;5036481;28;20493;-80
2023/07/17 01:37:34;;;;;;;6.28;3.13;;;;;;;17.00;73.06;101499.41;5027576;28;20384;-80
2023/07/17 01:40:00;;;;;;;6.05;3.20;;;;;;;17.03;72.92;101508.13;5024078;28;20018;-80
2023/07/17 01:42:25;;;;;;;4.43;2.80;;;;;;;17.03;72.81;101499.25;5023113;28;20051;-80
2023/07/17 01:44:50;;;;;;;6.47;3.50;;;;;;;17.08;72.51;101497.16;5019243;28;20029;-80
2023/07/17 01:47:16;;;;;;;7.43;3.17;;;;;;;17.14;72.05;101493.28;5021771;28;20409;-80
2023/07/17 01:49:41;;;;;;;6.90;3.20;;;;;;;17.14;72.26;101488.78;5021217;28;20446;-80
2023/07/17 01:52:08;;;;;;;5.40;3.38;;;;;;;17.06;72.46;101491.03;5022287;28;20029;-80
2023/07/17 01:54:34;;;;;;;6.82;3.25;;;;;;;17.11;72.46;101488.09;5030244;28;20036;-80
2023/07/17 01:56:59;;;;;;;5.35;2.90;;;;;;;17.08;72.19;101490.00;5027373;28;20029;-80
2023/07/17 01:59:25;;;;;;;7.28;3.33;;;;;;;17.09;72.36;101486.38;5025254;28;20049;-80
2023/07/17 02:01:50;;;;;;;6.10;3.35;;;;;;;17.11;72.13;101488.09;5019957;28;20025;-80
2023/07/17 02:04:15;;;;;;;5.82;3.53;;;;;;;16.98;72.92;101493.31;5027327;28;20021;-80
2023/07/17 02:06:41;;;;;;;5.82;3.15;;;;;;;16.92;73.07;101491.81;5024420;28;20024;-80
2023/07/17 02:09:06;;;;;;;6.30;3.20;;;;;;;16.93;72.95;101490.03;5025514;28;20025;-80
2023/07/17 02:11:32;;;;;;;7.15;2.78;;;;;;;16.91;72.91;101484.75;5032420;28;20029;-80
2023/07/17 02:13:58;;;;;;;8.60;3.38;;;;;;;16.87;72.89;101490.34;5026235;28;20025;-80
2023/07/17 02:16:23;;;;;;;6.47;3.20;;;;;;;16.79;73.26;101491.66;5023223;28;20029;-80
2023/07/17 02:18:48;;;;;;;6.32;3.03;;;;;;;16.86;73.18;101485.97;5025716;28;20484;-80
2023/07/17 02:21:13;;;;;;;6.88;3.25;;;;;;;16.73;73.01;101489.31;5019556;28;20022;-80
2023/07/17 02:23:39;;;;;;;5.82;2.95;;;;;;;16.74;73.48;101492.84;5020618;28;20030;-80
2023/07/17 02:26:04;;;;;;;5.55;2.92;;;;;;;16.76;72.78;101496.31;5027641;28;20096;-80
2023/07/17 02:28:29;;;;;;;7.47;3.13;;;;;;;16.76;72.81;101505.19;5017262;28;20028;-80
2023/07/17 02:30:54;;;;;;;5.93;3.33;;;;;;;16.71;73.28;101504.53;5013481;28;20021;-80
2023/07/17 02:33:20;;;;;;;7.05;3.40;;;;;;;16.71;72.89;101504.53;5028862;28;20400;-80
2023/07/17 02:35:45;;;;;;;6.00;3.38;;;;;;;16.63;73.80;101508.56;5032340;28;20022;-80
2023/07/17 02:38:10;;;;;;;6.82;2.75;;;;;;;16.62;72.63;101504.19;5025098;28;20025;-80
2023/07/17 02:40:36;;;;;;;6.50;3.38;;;;;;;16.58;73.00;101508.81;5014319;28;20041;-80
2023/07/17 02:43:01;;;;;;;5.47;2.95;;;;;;;16.47;73.48;101509.41;5018552;28;20120;-80
2023/07/17 02:45:26;;;;;;;8.73;3.20;;;;;;;16.46;73.46;101510.38;5033373;28;20026;-80
2023/07/17 02:47:53;;;;;;;7.18;3.13;;;;;;;16.41;74.27;101504.38;5023923;28;20033;-80
2023/07/17 02:50:18;;;;;;;7.80;2.97;;;;;;;16.38;74.26;101515.25;5024653;28;20075;-80
2023/07/17 02:52:43;;;;;;;8.73;3.45;;;;;;;16.37;74.08;101516.19;5027019;28;20029;-80
2023/07/17 02:55:09;;;;;;;5.47;3.10;;;;;;;16.33;74.19;101512.81;5018985;28;20496;-80
2023/07/17 02:57:35;;;;;;;6.03;3.58;;;;;;;16.25;74.31;101519.50;5018787;28;20116;-80
2023/07/17 03:00:09;;;;;;;7.20;3.53;;;;;;;16.26;74.32;101526.56;5027757;28;20116;-80
2023/07/17 03:02:35;;;;;;;6.28;3.03;;;;;;;16.20;74.29;101525.09;5028707;28;20507;-80
2023/07/17 03:05:04;;;;;;;9.65;3.50;;;;;;;16.20;74.57;101524.22;5046634;28;20388;-80
2023/07/17 03:07:31;;;;;;;7.80;3.40;;;;;;;16.23;74.53;101529.41;5020246;28;20029;-80
2023/07/17 03:09:56;;;;;;;6.18;3.20;;;;;;;16.20;74.55;101529.56;5024517;28;20094;-80
2023/07/17 03:12:21;;;;;;;4.22;3.03;;;;;;;16.18;74.19;101539.44;5019541;28;20021;-80
2023/07/17 03:14:47;;;;;;;6.57;3.30;;;;;;;16.15;74.03;101535.13;5023219;28;20030;-80
2023/07/17 03:17:12;;;;;;;9.05;3.30;;;;;;;16.10;75.05;101542.53;5034552;28;20022;-80
2023/07/17 03:19:38;;;;;;;9.60;3.22;;;;;;;16.09;74.60;101546.16;5015235;28;20028;-79
2023/07/17 03:22:03;;;;;;;9.80;3.60;;;;;;;16.01;74.88;101546.53;5020385;28;20082;-80
2023/07/17 03:24:29;;;;;;;5.70;3.20;;;;;;;16.04;74.49;101537.50;5014345;28;20022;-80
2023/07/17 03:26:54;;;;;;;5.30;3.28;;;;;;;16.04;75.02;101540.16;5012368;28;20472;-80
2023/07/17 03:29:19;;;;;;;4.32;2.97;;;;;;;16.02;74.65;101534.06;5029799;28;20036;-79
2023/07/17 03:31:44;;;;;;;6.32;3.00;;;;;;;15.99;75.21;101539.53;5021503;28;20178;-80
2023/07/17 03:34:10;;;;;;;7.75;2.67;;;;;;;15.93;75.27;101546.06;5024632;28;20029;-80
2023/07/17 03:36:35;;;;;;;7.63;3.25;;;;;;;15.90;75.59;101543.56;5020536;28;20036;-79
2023/07/17 03:39:00;;;;;;;6.18;3.08;;;;;;;15.86;75.44;101543.78;5029899;28;20029;-80
2023/07/17 03:41:26;;;;;;;4.80;2.88;;;;;;;15.81;75.55;101550.22;5031594;28;20050;-80
2023/07/17 03:43:52;;;;;;;4.80;3.00;;;;;;;15.84;75.32;101545.66;5018289;28;20107;-80
2023/07/17 03:46:17;;;;;;;8.45;3.30;;;;;;;15.78;75.72;101547.69;5028593;28;20032;-80
2023/07/17 03:48:42;;;;;;;7.78;3.70;;;;;;;15.78;75.75;101546.84;5016229;28;20026;-80
2023/07/17 03:51:08;;;;;;;6.22;3.42;;;;;;;15.70;75.65;101541.88;5028353;28;20391;-80
2023/07/17 03:53:33;;;;;;;7.28;3.15;;;;;;;15.73;75.19;101544.41;5019135;28;20026;-80
2023/07/17 03:55:58;;;;;;;7.75;2.97;;;;;;;15.77;75.14;101545.97;5019897;28;20114;-80
2023/07/17 03:58:24;;;;;;;6.93;3.42;;;;;;;15.81;75.05;101554.69;5019194;28;20041;-80
2023/07/17 04:00:49;;;;;;;7.25;3.22;;;;;;;15.81;75.27;101550.22;5022684;28;20038;-79
2023/07/17 04:03:15;;;;;;;9.18;2.88;;;;;;;15.71;75.50;101551.59;5018335;28;20474;-80
2023/07/17 04:05:40;;;;;;;7.60;3.40;;;;;;;15.69;75.34;101556.16;5023622;28;20030;-80
2023/07/17 04:08:05;;;;;;;9.32;3.40;;;;;;;15.66;75.97;101558.97;5023276;28;20047;-80
2023/07/17 04:10:31;;;;;;;6.57;2.67;;;;;;;15.67;75.70;101554.53;5023716;28;20072;-80
2023/07/17 04:12:56;;;;;;;6.50;3.13;;;;;;;15.64;75.26;101562.66;5021560;28;20029;-80
2023/07/17 04:15:22;;;;;;;6.35;3.17;;;;;;;15.65;75.31;101559.06;5031725;28;20396;-80
2023/07/17 04:17:47;;;;;;;8.57;3.38;;;;;;;15.60;76.01;101561.91;5024607;28;20021;-80
2023/07/17 04:20:12;;;;;;;7.63;3.47;;;;;;;15.60;75.76;101559.25;5024752;28;20032;-80
2023/07/17 04:22:38;;;;;;;10.00;3.88;;;;;;;15.66;75.03;101566.09;5019653;28;20030;-80
2023/07/17 04:25:04;;;;;;;6.10;3.28;;;;;;;15.69;75.33;101571.28;5023240;28;20392;-80
2023/07/17 04:27:30;;;;;;;6.80;4.05;;;;;;;15.65;75.32;101578.56;5028181;28;20100;-80
2023/07/17 04:29:56;;;;;;;7.03;3.03;;;;;;;15.65;75.31;101583.91;5022605;28;20028;-80
2023/07/17 04:32:21;;;;;;;8.35;3.60;;;;;;;15.67;75.57;101583.84;5031379;28;20025;-80
2023/07/17 04:34:46;;;;;;;7.97;3.47;;;;;;;15.75;74.78;101577.16;5024705;28;20029;-80
2023/07/17 04:37:12;;;;;;;6.07;3.50;;;;;;;15.77;74.94;101587.78;5025642;28;20036;-80
2023/07/17 04:39:37;;;;;;;7.70;3.40;;;;;;;15.75;74.87;101590.50;5031561;28;20028;-80
2023/07/17 04:42:02;;;;;;;8.02;3.95;;;;;;;15.73;74.98;101597.72;5018590;28;20067;-80
2023/07/17 04:44:28;;;;;;;9.20;3.92;;;;;;;15.75;74.63;101606.50;5023852;28;20033;-80
2023/07/17 04:46:53;;;;;;;6.80;3.67;;;;;;;15.76;74.83;101602.03;5021215;28;20018;-80
2023/07/17 04:49:18;;;;;;;8.85;4.05;;;;;;;15.80;74.68;101607.13;5030972;28;20494;-80
2023/07/17 04:51:43;;;;;;;6.90;4.35;;;;;;;15.85;74.40;101600.72;5022543;28;20070;-80
2023/07/17 04:54:09;;;;;;;8.57;4.03;;;;;;;15.87;74.25;101609.50;5021322;28;20039;-79
2023/07/17 04:56:34;;;;;;;7.85;3.80;;;;;;;15.90;74.35;101612.00;5026426;28;20087;-80
2023/07/17 04:58:59;;;;;;;10.55;4.55;;;;;;;15.88;74.57;101613.91;5022820;28;20025;-80
2023/07/17 05:01:24;;;;;;;13.65;4.10;;;;;;;15.90;74.28;101609.34;5022955;28;20037;-79
2023/07/17 05:03:50;;;;;;;9.57;4.55;;;;;;;15.88;74.65;101614.75;5018520;28;20120;-79
2023/07/17 05:06:15;;;;;;;10.40;4.00;;;;;;;15.92;74.08;101612.81;5033954;28;20029;-79
2023/07/17 05:08:40;;;;;;;5.63;3.15;;;;;;;15.97;74.25;101614.31;5027597;28;20043;-79
2023/07/17 05:11:06;;;;;;;9.43;4.07;;;;;;;15.96;74.59;101617.91;5034434;28;20052;-79
2023/07/17 05:13:31;;;;;;;10.50;3.97;;;;;;;15.92;74.60;101620.81;5024429;28;20112;-79
2023/07/17 05:15:57;;;;;;;8.73;3.88;;;;;;;16.01;73.88;101623.88;5022626;28;20018;-79
2023/07/17 05:18:22;;;;;;;9.07;4.60;;;;;;;16.06;74.01;101623.66;5027472;28;20060;-79
2023/07/17 05:20:49;;;;;;;10.20;4.30;;;;;;;16.11;73.83;101624.28;5029136;28;20036;-80
2023/07/17 05:23:15;;;;;;;10.15;4.47;;;;;;;16.14;74.24;101620.59;5030390;28;20021;-79
2023/07/17 05:25:41;;;;;;;9.85;4.35;;;;;;;16.20;73.29;101623.81;5033244;28;20155;-79
2023/07/17 05:28:07;;;;;;;9.27;4.18;;;;;;;16.18;73.60;101620.38;5037959;28;20479;-80
2023/07/17 05:30:33;;;;;;;9.30;4.07;;;;;;;16.25;73.40;101624.44;5029546;28;20044;-80
2023/07/17 05:32:59;;;;;;;9.35;4.10;;;;;;;16.25;73.53;101620.91;5029837;28;20030;-79
2023/07/17 05:35:24;;;;;;;10.77;4.50;;;;;;;16.31;72.82;101632.09;5034304;28;20369;-80
2023/07/17 05:37:50;;;;;;;9.00;3.72;;;;;;;16.42;73.25;101639.59;5023002;28;20021;-80
2023/07/17 05:40:15;;;;;;;14.15;4.40;;;;;;;16.45;73.24;101638.53;5016871;28;20026;-80
2023/07/17 05:42:40;;;;;;;9.32;3.90;;;;;;;16.46;73.62;101643.81;5027933;28;20048;-79
2023/07/17 05:45:06;;;;;;;9.23;4.43;;;;;;;16.54;72.80;101646.06;5027994;28;20035;-80
2023/07/17 05:47:32;;;;;;;10.20;4.55;;;;;;;16.53;72.68;101647.03;5027348;28;20035;-80
2023/07/17 05:49:57;;;;;;;8.82;4.20;;;;;;;16.63;72.42;101655.41;5031295;28;20033;-79
2023/07/17 05:52:22;;;;;;;7.72;3.95;;;;;;;16.67;72.03;101646.31;5022116;28;20025;-79
2023/07/17 05:54:47;;;;;;;10.38;4.07;;;;;;;16.78;71.94;101654.63;5031269;28;20132;-79
2023/07/17 05:57:13;;;;;;;10.23;4.25;;;;;;;16.86;71.63;101652.41;5017832;28;20105;-79
2023/07/17 05:59:38;;;;;;;9.40;4.28;;;;;;;16.93;71.65;101655.66;5020649;28;20481;-79
2023/07/17 06:02:04;;;;;;;11.45;4.18;;;;;;;16.94;70.92;101652.03;5015369;28;20057;-79
2023/07/17 06:04:29;;;;;;;8.68;4.20;;;;;;;16.97;71.26;101647.38;5027549;28;20234;-79
2023/07/17 06:06:55;;;;;;;11.13;4.40;;;;;;;17.00;71.57;101651.69;5031154;28;20442;-79
2023/07/17 06:09:20;;;;;;;10.90;4.97;;;;;;;17.02;70.54;101660.47;5035184;28;20031;-79
2023/07/17 06:11:45;;;;;;;15.35;4.93;;;;;;;17.09;70.35;101662.72;5031381;28;20463;-79
2023/07/17 06:14:11;;;;;;;13.18;4.68;;;;;;;17.08;70.48;101660.16;5024661;28;20087;-79
2023/07/17 06:16:36;;;;;;;7.78;4.10;;;;;;;17.10;69.89;101660.91;5012332;28;20025;-79
2023/07/17 06:19:01;;;;;;;10.98;5.03;;;;;;;17.22;69.71;101662.94;5026630;28;20036;-79
2023/07/17 06:21:26;;;;;;;6.18;4.03;;;;;;;17.30;68.58;101670.53;5026041;28;20041;-80
2023/07/17 06:23:52;;;;;;;7.97;3.53;;;;;;;17.34;68.95;101664.91;5017157;28;20461;-80
2023/07/17 06:26:17;;;;;;;11.25;5.47;;;;;;;17.40;68.59;101668.22;5011458;28;20033;-80
2023/07/17 06:28:42;;;;;;;12.88;4.97;;;;;;;17.50;68.12;101674.78;5023420;28;20477;-79
2023/07/17 06:31:08;;;;;;;11.85;4.57;;;;;;;17.53;67.49;101669.22;5032584;28;20444;-79
2023/07/17 06:33:36;;;;;;;16.02;5.80;;;;;;;17.67;68.08;101673.81;5018381;28;20029;-80
2023/07/17 06:36:02;;;;;;;12.52;4.40;;;;;;;17.82;67.46;101684.53;5017755;28;20026;-79
2023/07/17 06:38:27;;;;;;;11.95;5.03;;;;;;;17.97;67.17;101676.59;5025115;28;20033;-79
2023/07/17 06:40:53;;;;;;;8.63;4.93;;;;;;;17.87;67.36;101686.09;5019396;28;20048;-79
2023/07/17 06:43:18;;;;;;;10.10;4.57;;;;;;;17.86;67.68;101690.59;5020331;28;20503;-79
2023/07/17 06:45:44;;;;;;;11.23;4.68;;;;;;;18.07;66.15;101675.94;5017928;28;20029;-80
2023/07/17 06:48:09;;;;;;;13.10;4.97;;;;;;;18.05;66.58;101683.22;5013067;28;20469;-79
2023/07/17 06:50:34;;;;;;;10.82;5.00;;;;;;;18.15;65.45;101701.44;5029244;28;20051;-79
2023/07/17 06:52:59;;;;;;;16.70;5.05;;;;;;;18.20;65.42;101694.84;5025765;28;20029;-79
2023/07/17 06:55:25;;;;;;;12.85;4.85;;;;;;;18.32;65.84;101709.31;5028415;28;20036;-79
2023/07/17 06:57:50;;;;;;;13.27;5.60;;;;;;;18.49;65.55;101701.16;5024736;28;20194;-79
2023/07/17 07:00:15;;;;;;;13.00;5.60;;;;;;;18.64;64.90;101696.69;5027509;28;20035;-79
2023/07/17 07:02:41;;;;;;;12.13;5.22;;;;;;;18.89;64.46;101709.50;5022812;28;20763;-79
2023/07/17 07:05:06;;;;;;;13.20;4.55;;;;;;;18.91;64.22;101701.34;5021846;28;20683;-80
2023/07/17 07:07:32;;;;;;;10.52;4.85;;;;;;;18.97;63.93;101709.00;5020498;28;20018;-80
2023/07/17 07:09:57;;;;;;;16.33;5.05;;;;;;;19.06;62.91;101700.41;5037701;28;20159;-79
2023/07/17 07:12:22;;;;;;;10.27;4.40;;;;;;;19.01;62.18;101708.72;5017161;28;20034;-79
2023/07/17 07:14:48;;;;;;;10.80;4.88;;;;;;;19.11;63.22;101717.91;5020624;28;20385;-79
2023/07/17 07:17:13;;;;;;;10.00;3.85;;;;;;;19.30;62.98;101719.44;5032978;28;20040;-79
2023/07/17 07:19:38;;;;;;;9.52;4.28;;;;;;;19.30;61.93;101719.44;5020429;28;20563;-79
2023/07/17 07:22:04;;;;;;;10.55;4.28;;;;;;;19.25;61.51;101721.56;5028334;28;20044;-79
2023/07/17 07:24:29;;;;;;;11.10;4.40;;;;;;;19.45;61.50;101726.56;5024958;28;20032;-79
2023/07/17 07:26:54;;;;;;;11.50;4.40;;;;;;;19.56;61.40;101721.34;5025769;28;20436;-80
2023/07/17 07:29:19;;;;;;;9.93;4.80;;;;;;;19.60;60.32;101725.59;5026174;28;20035;-79
2023/07/17 07:31:45;;;;;;;13.35;4.38;;;;;;;19.65;60.65;101729.81;5024637;28;20048;-79
2023/07/17 07:34:10;;;;;;;10.60;4.35;;;;;;;19.88;60.50;101726.50;5026044;28;20412;-79
2023/07/17 07:36:35;;;;;;;9.52;4.80;;;;;;;19.83;58.57;101739.38;5023619;28;20036;-79
2023/07/17 07:39:05;;;;;;;10.38;4.90;;;;;;;20.12;57.66;101734.78;5020039;28;20080;-80
2023/07/17 07:41:30;;;;;;;9.57;4.15;;;;;;;20.20;58.50;101740.50;5016364;28;20527;-79
2023/07/17 07:43:56;;;;;;;10.18;4.50;;;;;;;20.30;56.97;101736.22;5019507;28;20109;-79
2023/07/17 07:46:21;;;;;;;11.00;4.60;;;;;;;20.22;57.80;101751.13;5023659;28;20029;-79
2023/07/17 07:48:46;;;;;;;11.85;4.53;;;;;;;20.30;56.21;101746.13;5025987;28;20040;-79
2023/07/17 07:51:11;;;;;;;10.85;4.40;;;;;;;20.45;56.66;101738.84;5014142;28;20033;-80
2023/07/17 07:53:37;;;;;;;10.70;4.25;;;;;;;20.78;56.21;101747.34;5035066;28;20033;-79
2023/07/17 07:56:02;;;;;;;6.30;3.25;;;;;;;21.40;54.13;101752.00;5031738;28;20028;-79
2023/07/17 07:58:27;;;;;;;9.65;3.95;;;;;;;21.94;51.66;101751.66;5025716;28;20452;-79
2023/07/17 08:00:53;;;;;;;9.10;4.28;;;;;;;22.18;50.45;101748.16;5029485;28;20025;-80
2023/07/17 08:03:18;;;;;;;7.40;4.28;;;;;;;22.25;51.87;101749.44;5032894;28;20112;-79
2023/07/17 08:05:43;;;;;;;9.82;4.13;;;;;;;22.15;52.95;101749.28;5029018;28;20034;-80
2023/07/17 08:08:09;;;;;;;10.70;4.35;;;;;;;22.27;50.89;101744.78;5027399;28;20032;-80
2023/07/17 08:10:37;;;;;;;11.10;4.10;;;;;;;22.55;49.48;101757.88;5027223;28;20028;-80
2023/07/17 08:13:03;;;;;;;9.15;3.85;;;;;;;22.72;49.71;101755.75;5019318;28;20100;-80
2023/07/17 08:15:29;;;;;;;9.30;4.38;;;;;;;22.97;49.76;101754.72;5017304;28;20492;-80
2023/07/17 08:17:54;;;;;;;10.15;3.90;;;;;;;23.28;48.21;101756.75;5014735;28;20034;-80
2023/07/17 08:20:19;;;;;;;11.07;4.32;;;;;;;23.85;46.42;101752.19;5015093;28;20022;-80
2023/07/17 08:22:45;;;;;;;8.07;3.90;;;;;;;24.23;45.61;101754.44;5024287;28;20038;-82
2023/07/17 08:25:10;;;;;;;8.38;3.78;;;;;;;24.19;44.40;101745.72;5016832;28;20104;-81
2023/07/17 08:27:35;;;;;;;7.38;3.60;;;;;;;24.37;44.42;101745.19;5025258;28;20034;-81
2023/07/17 08:30:00;;;;;;;6.80;3.67;;;;;;;24.84;44.22;101762.78;5027699;28;20025;-81
2023/07/17 08:32:26;;;;;;;8.63;3.40;;;;;;;25.06;42.82;101759.09;5024206;28;20025;-82
2023/07/17 08:34:51;;;;;;;7.88;4.07;;;;;;;25.08;43.44;101767.09;5019623;28;20477;-81
2023/07/17 08:37:16;;;;;;;7.10;3.28;;;;;;;25.09;43.32;101756.16;5027855;28;20034;-82
2023/07/17 08:39:41;;;;;;;8.88;3.63;;;;;;;25.39;43.29;101766.13;5024808;28;20476;-81
2023/07/17 08:42:07;;;;;;;11.38;3.63;;;;;;;25.12;41.84;101777.53;5021365;28;20084;-81
2023/07/17 08:44:33;;;;;;;7.82;3.97;;;;;;;24.56;42.54;101769.69;5026290;28;20017;-81
2023/07/17 08:47:00;;;;;;;8.65;3.55;;;;;;;25.43;41.27;101766.72;5024287;28;20036;-81
2023/07/17 08:49:26;;;;;;;10.93;4.28;;;;;;;25.78;39.86;101760.03;5038358;28;20090;-81
2023/07/17 08:51:52;;;;;;;8.73;3.58;;;;;;;26.05;39.86;101768.38;5018325;28;20120;-81
2023/07/17 08:54:17;;;;;;;9.23;3.60;;;;;;;24.84;41.26;101772.75;5024524;28;20568;-81
2023/07/17 08:56:44;;;;;;;8.82;3.92;;;;;;;23.89;43.43;101773.44;5020408;28;20063;-81
2023/07/17 08:59:10;;;;;;;8.48;4.47;;;;;;;23.52;45.21;101767.41;5018186;28;20022;-81
2023/07/17 09:01:36;;;;;;;6.43;3.95;;;;;;;24.41;42.45;101765.59;5026817;28;20088;-80
2023/07/17 09:04:03;;;;;;;7.70;3.72;;;;;;;24.54;43.57;101762.72;5021480;28;20033;-81
2023/07/17 09:06:28;;;;;;;7.60;3.65;;;;;;;23.93;43.96;101769.50;5016974;28;20116;-81
2023/07/17 09:08:54;;;;;;;6.85;3.35;;;;;;;23.90;42.90;101777.84;5020906;28;20116;-81
2023/07/17 09:11:19;;;;;;;6.05;3.85;;;;;;;24.05;43.53;101764.91;5028880;28;21779;-81
2023/07/17 09:13:46;;;;;;;9.70;3.72;;;;;;;23.23;43.82;101774.28;5030921;28;20054;-81
2023/07/17 09:16:18;;;;;;;7.78;4.05;;;;;;;22.73;45.87;101768.25;5024843;28;20035;-80
2023/07/17 09:18:43;;;;;;;;;;;;;;;22.79;46.81;101765.06;5019845;28;20108;-81
2023/07/17 09:21:16;;;;;;;6.10;3.15;;;;;;;22.75;46.95;101777.91;5017786;28;20036;-81
2023/07/17 09:23:47;;;;;;;8.23;3.45;;;;;;;22.83;47.44;101771.94;5025093;28;20032;-81
2023/07/17 09:26:21;;;;;;;10.32;3.90;;;;;;;22.50;47.20;101767.31;5025333;28;20418;-81
2023/07/17 09:28:49;;;;;;;8.90;3.95;;;;;;;22.90;46.15;101775.94;5025083;28;20022;-81
2023/07/17 09:31:29;;;;;;;8.32;3.60;;;;;;;22.85;46.46;101780.78;5017594;28;20476;-81
2023/07/17 09:33:59;;;;;;;7.15;3.55;;;;;;;22.46;45.77;101772.06;5028559;28;20018;-82
2023/07/17 09:36:25;;;;;;;6.60;3.20;;;;;;;22.43;45.83;101764.22;5025897;28;20021;-81
2023/07/17 09:38:55;;;;;;;7.05;3.25;;;;;;;22.77;45.31;101761.66;5019207;28;20025;-81
2023/07/17 09:41:23;;;;;;;8.55;3.38;;;;;;;23.09;46.00;101762.72;5025064;28;20056;-81
2023/07/17 09:44:03;;;;;;;7.07;2.92;;;;;;;23.37;43.90;101780.31;5025879;28;20103;-81
2023/07/17 09:46:29;;;;;;;8.93;3.55;;;;;;;23.05;44.37;101774.72;5020606;28;20476;-81
2023/07/17 09:48:56;;;;;;;7.15;2.72;;;;;;;23.42;43.19;101779.94;5015312;28;20021;-81
2023/07/17 09:51:22;;;;;;;3.60;2.80;;;;;;;23.92;43.14;101775.88;5021606;28;20025;-79
2023/07/17 09:53:47;;;;;;;7.13;2.72;;;;;;;24.11;41.46;101771.69;5022777;28;20029;-79
2023/07/17 09:56:15;;;;;;;6.43;3.40;;;;;;;23.62;41.97;101781.03;5023642;28;20033;-79
2023/07/17 09:58:45;;;;;;;9.65;3.10;;;;;;;23.71;44.24;101780.31;5026107;28;20022;-81
2023/07/17 10:01:14;;;;;;;7.97;3.22;;;;;;;23.86;43.89;101775.50;5015544;28;20377;-81
2023/07/17 10:03:44;;;;;;;7.45;2.67;;;;;;;24.29;41.02;101785.47;5019045;28;20029;-81
2023/07/17 10:06:11;;;;;;;6.13;2.63;;;;;;;24.00;41.07;101777.09;5027791;28;20496;-81
2023/07/17 10:08:37;;;;;;;4.97;2.50;;;;;;;23.29;41.39;101777.34;5026362;28;20024;-81
2023/07/17 10:11:04;;;;;;;5.00;2.40;;;;;;;22.99;43.24;101782.44;5042002;28;20476;-81
2023/07/17 10:13:29;;;;;;;4.50;2.30;;;;;;;22.79;42.05;101782.09;5029114;28;20030;-82
2023/07/17 10:15:54;;;;;;;7.57;3.17;;;;;;;22.83;44.29;101774.63;5020159;28;20040;-82
2023/07/17 10:18:22;;;;;;;7.65;2.80;;;;;;;23.44;42.54;101772.56;5013637;28;20030;-82
2023/07/17 10:20:54;;;;;;;5.13;2.63;;;;;;;24.46;41.58;101786.81;5015471;28;20029;-81
2023/07/17 10:23:24;;;;;;;5.03;2.70;;;;;;;24.89;38.41;101768.66;5032688;28;20559;-81
2023/07/17 10:25:51;;;;;;;5.45;2.72;;;;;;;24.46;38.50;101781.41;5027298;28;20025;-81
2023/07/17 10:28:29;;;;;;;5.47;2.55;;;;;;;24.80;39.65;101780.25;5025364;28;20026;-81
2023/07/17 10:30:54;;;;;;;4.63;2.47;;;;;;;24.63;38.70;101779.00;5028657;28;20030;-81
2023/07/17 10:33:20;;;;;;;5.95;2.72;;;;;;;24.42;39.51;101770.00;5029087;28;20095;-81
2023/07/17 10:35:50;;;;;;;4.80;2.63;;;;;;;24.46;38.72;101782.28;5026909;28;20049;-81
2023/07/17 10:38:17;;;;;;;4.78;2.72;;;;;;;24.93;38.66;101780.94;5029695;28;20030;-81
2023/07/17 10:40:44;;;;;;;8.60;3.55;;;;;;;25.70;39.16;101783.22;5026916;28;20107;-81
2023/07/17 10:43:10;;;;;;;11.13;3.17;;;;;;;26.02;38.80;101782.22;5024231;28;20028;-81
2023/07/17 10:45:35;;;;;;;5.82;2.80;;;;;;;25.72;37.31;101780.38;5023700;28;20013;-81
2023/07/17 10:48:01;;;;;;;5.75;2.95;;;;;;;25.18;37.43;101785.13;5020146;28;20381;-80
2023/07/17 10:50:26;;;;;;;6.78;2.40;;;;;;;24.76;37.49;101778.84;5026665;28;20500;-82
2023/07/17 10:52:52;;;;;;;4.90;2.60;;;;;;;24.74;39.45;101785.34;5029116;28;20028;-81
2023/07/17 10:55:17;;;;;;;5.70;3.28;;;;;;;25.02;37.30;101783.84;5026741;28;20029;-82
2023/07/17 10:57:42;;;;;;;6.28;3.17;;;;;;;25.03;37.92;101780.13;5019498;28;20029;-81
2023/07/17 11:00:08;;;;;;;6.45;3.67;;;;;;;24.92;38.79;101779.22;5016912;28;20489;-82
2023/07/17 11:02:33;;;;;;;6.10;3.20;;;;;;;25.32;37.64;101775.78;5029311;28;20044;-81
2023/07/17 11:05:01;;;;;;;4.78;2.95;;;;;;;25.12;38.00;101773.97;5014226;28;20026;-82
2023/07/17 11:07:30;;;;;;;6.07;2.95;;;;;;;24.94;38.89;101771.81;5013389;28;20463;-82
2023/07/17 11:09:56;;;;;;;7.93;3.25;;;;;;;25.42;37.04;101765.88;5010188;28;20018;-80
2023/07/17 11:12:24;;;;;;;8.23;3.75;;;;;;;26.02;39.49;101768.66;5022917;28;20036;-80
2023/07/17 11:14:53;;;;;;;8.00;3.25;;;;;;;26.23;35.96;101768.53;5020421;28;20457;-80
2023/07/17 11:17:18;;;;;;;6.47;3.40;;;;;;;26.30;36.61;101771.53;5032690;28;20036;-81